Time;durP1;ratioP1;P1;durP2;ratioP2;P2;SDS_P1;SDS_P2;PMS_P1;PMS_P2;Temp;Humidity;BMP_temperature;BMP_pressure;BME280_temperature;BME280_humidity;BME280_pressure;Samples;Min_cycle;Max_cycle;Signal;HPM_P1;HPM_P2
2021/06/18 00:02:18;;;;;;;1999.90;999.90;;;;;;;15.30;100.00;95903.81;5113861;28;20223;-59
2021/06/18 00:04:47;;;;;;;1999.90;999.90;;;;;;;15.23;100.00;95895.69;5113524;28;20211;-59
2021/06/18 00:07:14;;;;;;;1999.90;999.90;;;;;;;15.22;100.00;95891.53;5113761;27;20191;-59
2021/06/18 00:09:43;;;;;;;1999.90;999.90;;;;;;;15.23;100.00;95889.66;5113504;28;20195;-59
2021/06/18 00:12:12;;;;;;;1999.90;999.90;;;;;;;15.25;100.00;95895.34;5113354;28;20195;-60
2021/06/18 00:14:40;;;;;;;1999.90;999.90;;;;;;;15.30;100.00;95903.81;5113270;28;20238;-60
2021/06/18 00:17:07;;;;;;;1999.90;999.90;;;;;;;15.18;100.00;95901.09;5113443;28;20233;-59
2021/06/18 00:19:35;;;;;;;1999.90;999.90;;;;;;;15.20;100.00;95904.13;5113361;28;20191;-60
2021/06/18 00:22:04;;;;;;;1999.90;999.90;;;;;;;15.17;100.00;95902.16;5113224;28;20277;-60
2021/06/18 00:24:31;;;;;;;1999.90;999.90;;;;;;;15.18;100.00;95900.31;5113402;28;20201;-60
2021/06/18 00:26:58;;;;;;;1999.90;999.90;;;;;;;15.17;100.00;95896.91;5113140;27;20191;-59
2021/06/18 00:29:26;;;;;;;1999.90;999.90;;;;;;;15.14;100.00;95897.56;5113407;28;20282;-59
2021/06/18 00:31:53;;;;;;;1999.90;999.90;;;;;;;15.12;100.00;95889.22;5113277;28;20211;-60
2021/06/18 00:34:20;;;;;;;1999.90;999.90;;;;;;;15.15;100.00;95888.59;5113133;28;20207;-59
2021/06/18 00:36:47;;;;;;;1999.90;999.90;;;;;;;15.08;100.00;95889.09;5112322;28;20720;-60
2021/06/18 00:39:16;;;;;;;1999.90;999.90;;;;;;;15.07;100.00;95877.09;5113302;28;20198;-59
2021/06/18 00:41:43;;;;;;;1999.90;999.90;;;;;;;15.11;100.00;95882.44;5113279;27;20666;-59
2021/06/18 00:44:10;;;;;;;1999.90;999.90;;;;;;;15.07;100.00;95886.78;5112842;28;20195;-60
2021/06/18 00:46:38;;;;;;;1999.90;999.90;;;;;;;15.13;100.00;95884.78;5112788;28;20210;-60
2021/06/18 00:49:06;;;;;;;1999.90;999.90;;;;;;;15.12;100.00;95894.47;5112775;28;20190;-59
2021/06/18 00:51:34;;;;;;;1999.90;999.90;;;;;;;15.12;100.00;95891.06;5112683;28;20315;-59
2021/06/18 00:54:01;;;;;;;1999.90;999.90;;;;;;;15.13;100.00;95893.41;5112825;28;20230;-60
2021/06/18 00:56:30;;;;;;;1999.90;999.90;;;;;;;15.10;100.00;95894.00;5112571;28;20262;-60
2021/06/18 00:58:58;;;;;;;1999.90;999.90;;;;;;;15.01;100.00;95890.63;5112737;28;20202;-60
2021/06/18 01:01:25;;;;;;;1999.90;999.90;;;;;;;15.04;100.00;95890.03;5112657;28;20282;-60
2021/06/18 01:03:53;;;;;;;1999.90;999.90;;;;;;;15.05;100.00;95886.31;5112364;28;20217;-60
2021/06/18 01:06:24;;;;;;;1999.90;999.90;;;;;;;15.02;100.00;95884.31;5112931;28;20191;-60
2021/06/18 01:08:56;;;;;;;1999.90;999.90;;;;;;;14.98;100.00;95888.66;5112520;28;20205;-60
2021/06/18 01:11:36;;;;;;;1999.90;999.90;;;;;;;15.04;100.00;95882.19;5112581;28;20187;-60
2021/06/18 01:14:08;;;;;;;1999.90;999.90;;;;;;;15.02;100.00;95881.72;5112261;28;20237;-58
2021/06/18 01:16:39;;;;;;;1999.90;999.90;;;;;;;14.99;100.00;95874.50;5112622;27;20223;-60
2021/06/18 01:19:12;;;;;;;1999.90;999.90;;;;;;;15.03;100.00;95880.63;5112665;28;20191;-60
2021/06/18 01:21:42;;;;;;;1999.90;999.90;;;;;;;14.97;100.00;95879.25;5112089;28;20195;-59
2021/06/18 01:24:30;;;;;;;1999.90;999.90;;;;;;;14.90;100.00;95881.56;5112060;28;20198;-59
2021/06/18 01:27:27;;;;;;;1999.90;999.90;;;;;;;14.83;100.00;95886.50;5112214;28;20195;-60
2021/06/18 01:30:00;;;;;;;1999.90;999.90;;;;;;;14.81;100.00;95886.03;5112105;28;20203;-60
2021/06/18 01:32:33;;;;;;;1999.90;999.90;;;;;;;14.79;100.00;95885.59;5112046;28;20195;-60
2021/06/18 01:35:02;;;;;;;1999.90;999.90;;;;;;;14.83;100.00;95884.66;5112005;28;20198;-60
2021/06/18 01:37:33;;;;;;;1999.90;999.90;;;;;;;14.76;100.00;95883.59;5111720;28;20709;-60
2021/06/18 01:40:05;;;;;;;1999.90;999.90;;;;;;;14.73;100.00;95881.59;5112164;28;20205;-59
2021/06/18 01:42:34;;;;;;;1999.90;999.90;;;;;;;14.74;100.00;95883.16;5112159;28;20206;-59
2021/06/18 01:45:05;;;;;;;1999.90;999.90;;;;;;;14.66;100.00;95882.06;5111689;28;20195;-60
2021/06/18 01:47:33;;;;;;;1999.90;999.90;;;;;;;14.63;100.00;95880.06;5110879;28;20187;-60
2021/06/18 01:50:02;;;;;;;1999.90;999.90;;;;;;;14.61;100.00;95885.59;5111595;28;20191;-60
2021/06/18 01:52:31;;;;;;;1999.90;999.90;;;;;;;14.52;100.00;95892.69;5111718;28;20222;-59
2021/06/18 01:55:03;;;;;;;1999.90;999.90;;;;;;;14.41;100.00;95885.44;5111898;28;20725;-60
2021/06/18 01:57:31;;;;;;;1999.90;999.90;;;;;;;14.50;100.00;95886.22;5111533;28;20231;-59
2021/06/18 02:00:00;;;;;;;1999.90;999.90;;;;;;;14.48;100.00;95883.16;5111391;28;20206;-60
2021/06/18 02:02:29;;;;;;;1999.90;999.90;;;;;;;14.49;100.00;95892.53;5111305;28;20194;-60
2021/06/18 02:04:57;;;;;;;1999.90;999.90;;;;;;;14.52;100.00;95890.06;5111076;28;20219;-59
2021/06/18 02:07:26;;;;;;;1999.90;999.90;;;;;;;14.59;100.00;95887.75;5111411;28;20197;-59
2021/06/18 02:09:55;;;;;;;1999.90;999.90;;;;;;;14.51;100.00;95898.22;5111140;28;20758;-59
2021/06/18 02:12:24;;;;;;;1999.90;999.90;;;;;;;14.34;100.00;95898.97;5110977;28;20195;-60
2021/06/18 02:14:52;;;;;;;1999.90;999.90;;;;;;;14.00;100.00;95889.22;5110918;28;20223;-60
2021/06/18 02:17:22;;;;;;;1999.90;999.90;;;;;;;14.02;100.00;95901.97;5110972;28;20604;-60
2021/06/18 02:19:51;;;;;;;1999.90;999.90;;;;;;;14.11;100.00;95898.31;5110987;28;20596;-60
2021/06/18 02:22:19;;;;;;;1999.90;999.90;;;;;;;14.00;100.00;95901.50;5111157;28;20199;-59
2021/06/18 02:24:50;;;;;;;1999.90;999.90;;;;;;;13.94;100.00;95897.53;5111088;28;20191;-59
2021/06/18 02:27:19;;;;;;;1999.90;999.90;;;;;;;13.73;100.00;95897.31;5110896;28;20191;-60
2021/06/18 02:29:49;;;;;;;1999.90;999.90;;;;;;;13.74;100.00;95899.63;5110868;28;20199;-60
2021/06/18 02:32:17;;;;;;;1999.90;999.90;;;;;;;13.76;100.00;95894.84;5110964;28;20229;-59
2021/06/18 02:34:45;;;;;;;1999.90;999.90;;;;;;;13.84;100.00;95908.25;5110785;28;20191;-60
2021/06/18 02:37:14;;;;;;;1999.90;999.90;;;;;;;13.89;100.00;95895.03;5110662;28;20235;-58
2021/06/18 02:39:43;;;;;;;1999.90;999.90;;;;;;;13.91;100.00;95905.94;5110711;28;20199;-60
2021/06/18 02:42:11;;;;;;;1999.90;999.90;;;;;;;14.00;100.00;95902.28;5111248;28;20585;-59
2021/06/18 02:44:39;;;;;;;1999.90;999.90;;;;;;;14.08;100.00;95896.31;5110770;28;20570;-59
2021/06/18 02:47:12;;;;;;;1999.90;999.90;;;;;;;14.18;100.00;95903.09;5110926;28;20223;-59
2021/06/18 02:49:45;;;;;;;1999.90;999.90;;;;;;;14.21;100.00;95903.25;5110900;28;20227;-59
2021/06/18 02:52:22;;;;;;;1999.90;999.90;;;;;;;14.29;100.00;95904.34;5110787;28;20277;-60
2021/06/18 02:54:57;;;;;;;1999.90;999.90;;;;;;;14.36;100.00;95909.09;5111137;28;20206;-60
2021/06/18 02:57:30;;;;;;;1999.90;999.90;;;;;;;14.36;100.00;95906.47;5110585;28;20218;-59
2021/06/18 03:00:02;;;;;;;1999.90;999.90;;;;;;;14.35;100.00;95903.09;5110352;28;20206;-59
2021/06/18 03:02:35;;;;;;;1999.90;999.90;;;;;;;14.33;100.00;95909.72;5110534;28;20662;-60
2021/06/18 03:05:06;;;;;;;1999.90;999.90;;;;;;;14.36;100.00;95909.09;5110609;28;20213;-60
2021/06/18 03:07:38;;;;;;;1999.90;999.90;;;;;;;14.45;100.00;95902.81;5110611;28;20222;-59
2021/06/18 03:10:08;;;;;;;1999.90;999.90;;;;;;;14.53;100.00;95912.53;5110451;28;20223;-59
2021/06/18 03:12:41;;;;;;;1999.90;999.90;;;;;;;14.49;100.00;95910.84;5110238;28;20199;-60
2021/06/18 03:15:10;;;;;;;1999.90;999.90;;;;;;;14.51;100.00;95912.06;5110194;28;20226;-59
2021/06/18 03:17:40;;;;;;;1999.90;999.90;;;;;;;14.57;100.00;95910.06;5110118;28;20223;-59
2021/06/18 03:20:11;;;;;;;1999.90;999.90;;;;;;;14.58;100.00;95912.38;5110372;28;20197;-60
2021/06/18 03:22:42;;;;;;;1999.90;999.90;;;;;;;14.59;100.00;95907.94;5110295;28;20666;-60
2021/06/18 03:25:10;;;;;;;1999.90;999.90;;;;;;;14.64;100.00;95900.66;5110263;28;20193;-60
2021/06/18 03:27:39;;;;;;;1999.90;999.90;;;;;;;14.69;100.00;95906.84;5110224;28;20215;-60
2021/06/18 03:30:08;;;;;;;1999.90;999.90;;;;;;;14.68;100.00;95902.69;5110074;28;20191;-59
2021/06/18 03:32:38;;;;;;;1999.90;999.90;;;;;;;14.71;100.00;95904.69;5110163;28;20195;-60
2021/06/18 03:35:07;;;;;;;1999.90;999.90;;;;;;;14.71;100.00;95902.84;5110454;28;20627;-60
2021/06/18 03:37:35;;;;;;;1999.90;999.90;;;;;;;14.78;100.00;95911.00;5109998;28;20233;-60
2021/06/18 03:40:05;;;;;;;1999.90;999.90;;;;;;;14.86;100.00;95912.06;5110051;28;20684;-60
2021/06/18 03:42:33;;;;;;;1999.90;999.90;;;;;;;14.88;100.00;95907.28;5109953;28;20206;-60
2021/06/18 03:45:03;;;;;;;1999.90;999.90;;;;;;;14.93;100.00;95909.75;5110206;28;20665;-60
2021/06/18 03:47:30;;;;;;;1999.90;999.90;;;;;;;14.95;100.00;95899.72;5109898;28;20188;-59
2021/06/18 03:49:59;;;;;;;1999.90;999.90;;;;;;;15.03;100.00;95899.72;5110138;28;20217;-59
2021/06/18 03:52:27;;;;;;;1999.90;999.90;;;;;;;15.06;100.00;95906.19;5110075;28;20202;-59
2021/06/18 03:54:56;;;;;;;1999.90;999.90;;;;;;;15.03;100.00;95906.81;5109793;28;20188;-59
2021/06/18 03:57:25;;;;;;;1999.90;999.90;;;;;;;15.02;100.00;95915.75;5109528;28;20226;-60
2021/06/18 03:59:53;;;;;;;1999.90;999.90;;;;;;;15.04;100.00;95921.44;5109858;28;20202;-59
2021/06/18 04:02:24;;;;;;;1999.90;999.90;;;;;;;15.08;100.00;95925.75;5109722;28;20191;-59
2021/06/18 04:04:53;;;;;;;1999.90;999.90;;;;;;;15.15;100.00;95925.25;5109560;28;20302;-60
2021/06/18 04:07:21;;;;;;;1999.90;999.90;;;;;;;15.16;100.00;95929.41;5109645;28;20193;-60
2021/06/18 04:09:49;;;;;;;1999.90;999.90;;;;;;;15.19;100.00;95926.19;5110289;28;20221;-60
2021/06/18 04:12:18;;;;;;;1999.90;999.90;;;;;;;15.13;100.00;95926.66;5112489;28;20195;-59
2021/06/18 04:14:47;;;;;;;1999.90;999.90;;;;;;;15.20;100.00;95927.69;5113151;28;20700;-61
2021/06/18 04:17:14;;;;;;;1999.90;999.90;;;;;;;15.31;100.00;95928.16;5113214;28;20223;-59
2021/06/18 04:19:43;;;;;;;1999.90;999.90;;;;;;;15.52;100.00;95934.28;5113236;28;20510;-60
2021/06/18 04:22:15;;;;;;;1999.90;999.90;;;;;;;15.70;100.00;95934.97;5113224;28;20187;-60
2021/06/18 04:24:43;;;;;;;1999.90;999.90;;;;;;;15.89;100.00;95940.59;5113541;28;20195;-60
2021/06/18 04:27:10;;;;;;;1999.90;999.90;;;;;;;15.92;100.00;95943.38;5113139;28;20202;-59
2021/06/18 04:29:37;;;;;;;1999.90;999.90;;;;;;;16.03;100.00;95946.41;5113090;28;20198;-60
2021/06/18 04:32:07;;;;;;;1999.90;999.90;;;;;;;16.19;100.00;95950.00;5113291;28;20203;-59
2021/06/18 04:34:34;;;;;;;1999.90;999.90;;;;;;;16.34;100.00;95946.06;5113091;27;20252;-60
2021/06/18 04:37:02;;;;;;;1999.90;999.90;;;;;;;16.42;100.00;95950.50;5113250;28;20199;-57
2021/06/18 04:39:29;;;;;;;1999.90;999.90;;;;;;;16.47;100.00;95957.41;5112948;28;20201;-59
2021/06/18 04:41:57;;;;;;;1999.90;999.90;;;;;;;16.35;100.00;95958.09;5113165;28;20270;-60
2021/06/18 04:44:25;;;;;;;1999.90;999.90;;;;;;;16.34;100.00;95956.56;5112777;28;20796;-59
2021/06/18 04:46:52;;;;;;;1999.90;999.90;;;;;;;16.31;100.00;95957.19;5112736;28;20581;-59
2021/06/18 04:49:21;;;;;;;1999.90;999.90;;;;;;;16.27;100.00;95958.94;5113292;28;20212;-60
2021/06/18 04:51:48;;;;;;;1999.90;999.90;;;;;;;16.29;100.00;95960.13;5112671;28;20191;-60
2021/06/18 04:54:16;;;;;;;1999.90;999.90;;;;;;;16.24;100.00;95955.06;5112838;28;20234;-60
2021/06/18 04:56:43;;;;;;;1999.90;999.90;;;;;;;16.29;100.00;95954.88;5112772;28;20195;-59
2021/06/18 04:59:10;;;;;;;1999.90;999.90;;;;;;;16.36;100.00;95952.53;5112716;28;20230;-59
2021/06/18 05:01:38;;;;;;;1999.90;999.90;;;;;;;16.27;100.00;95958.94;5112455;28;20199;-60
2021/06/18 05:04:05;;;;;;;1999.90;999.90;;;;;;;16.23;100.00;95942.28;5112544;28;20211;-60
2021/06/18 05:06:34;;;;;;;1999.90;999.90;;;;;;;16.22;100.00;95948.63;5112378;28;20565;-59
2021/06/18 05:09:01;;;;;;;1999.90;999.90;;;;;;;16.25;100.00;95963.72;5112664;28;20199;-59
2021/06/18 05:11:28;;;;;;;1999.90;999.90;;;;;;;16.38;100.00;95957.47;5112443;27;20199;-59
2021/06/18 05:13:55;;;;;;;1999.90;999.90;;;;;;;16.56;100.00;95953.66;5112312;28;20310;-60
2021/06/18 05:16:23;;;;;;;1999.90;999.90;;;;;;;16.81;100.00;95954.56;5112306;28;20203;-59
2021/06/18 05:18:50;;;;;;;1999.90;999.90;;;;;;;17.04;99.71;95961.00;5112095;28;20242;-58
2021/06/18 05:21:17;;;;;;;1999.90;999.90;;;;;;;17.20;97.85;95967.19;5112265;28;20201;-60
2021/06/18 05:23:46;;;;;;;1999.90;999.90;;;;;;;17.26;98.57;95967.00;5112041;28;20195;-59
2021/06/18 05:26:13;;;;;;;1999.90;999.90;;;;;;;17.46;97.43;95960.94;5112097;27;20199;-60
2021/06/18 05:28:41;;;;;;;1999.90;999.90;;;;;;;17.49;96.82;95966.28;5111908;28;20196;-59
2021/06/18 05:31:08;;;;;;;1999.90;999.90;;;;;;;17.61;97.86;95963.72;5111951;28;20195;-58
2021/06/18 05:33:35;;;;;;;1999.90;999.90;;;;;;;17.80;97.93;95959.81;5112075;27;20187;-59
2021/06/18 05:36:02;;;;;;;1999.90;999.90;;;;;;;18.05;96.57;95966.63;5112050;28;20278;-58
2021/06/18 05:38:29;;;;;;;1999.90;999.90;;;;;;;18.41;96.16;95960.56;5111847;28;20231;-60
2021/06/18 05:40:58;;;;;;;1999.90;999.90;;;;;;;18.74;95.46;95969.09;5111790;28;20198;-61
2021/06/18 05:43:26;;;;;;;1999.90;999.90;;;;;;;18.81;95.05;95961.41;5111719;28;20191;-60
2021/06/18 05:45:53;;;;;;;1999.90;999.90;;;;;;;18.80;93.47;95962.50;5111678;28;20188;-61
2021/06/18 05:48:20;;;;;;;1999.90;999.90;;;;;;;19.09;91.33;95960.63;5111635;28;20710;-60
2021/06/18 05:50:48;;;;;;;1999.90;999.90;;;;;;;19.42;90.40;95961.16;5111957;28;20294;-59
2021/06/18 05:53:15;;;;;;;1999.90;999.90;;;;;;;19.63;90.80;95959.06;5111520;28;20191;-61
2021/06/18 05:55:44;;;;;;;1999.90;999.90;;;;;;;19.47;88.21;95954.88;5111429;28;20199;-61
2021/06/18 05:58:13;;;;;;;1999.90;999.90;;;;;;;19.34;89.71;95959.41;5111606;28;20313;-60
2021/06/18 06:00:40;;;;;;;1999.90;999.90;;;;;;;19.29;89.48;95957.03;5111353;28;20202;-60
2021/06/18 06:03:08;;;;;;;1999.90;999.90;;;;;;;19.63;88.97;95953.78;5111258;28;20195;-61
2021/06/18 06:05:35;;;;;;;1999.90;999.90;;;;;;;19.84;90.55;95952.75;5111372;28;20202;-61
2021/06/18 06:08:02;;;;;;;1999.90;999.90;;;;;;;19.92;91.33;95951.84;5111275;28;20191;-60
2021/06/18 06:10:29;;;;;;;1999.90;999.90;;;;;;;19.90;89.62;95952.19;5111101;28;20199;-59
2021/06/18 06:12:57;;;;;;;1999.90;999.90;;;;;;;20.15;88.24;95955.41;5111482;28;20191;-61
2021/06/18 06:15:25;;;;;;;1999.90;999.90;;;;;;;20.23;86.05;95951.03;5111126;28;20627;-59
2021/06/18 06:17:53;;;;;;;1999.90;999.90;;;;;;;20.35;86.16;95958.88;5111145;28;20229;-61
2021/06/18 06:20:20;;;;;;;1999.90;999.90;;;;;;;20.31;85.95;95947.47;5111319;28;20206;-60
2021/06/18 06:22:50;;;;;;;1999.90;999.90;;;;;;;20.22;86.15;95939.72;5110973;28;20198;-60
2021/06/18 06:25:17;;;;;;;1999.90;999.90;;;;;;;20.25;85.75;95949.59;5111096;27;20680;-60
2021/06/18 06:27:44;;;;;;;1999.90;999.90;;;;;;;20.28;87.21;95945.47;5111040;28;20203;-60
2021/06/18 06:30:13;;;;;;;1999.90;999.90;;;;;;;20.79;86.99;95940.94;5110844;28;20199;-59
2021/06/18 06:32:42;;;;;;;1999.90;999.90;;;;;;;20.88;83.20;95941.50;5110859;28;20192;-60
2021/06/18 06:35:10;;;;;;;1999.90;999.90;;;;;;;21.16;84.31;95936.78;5110491;28;20196;-60
2021/06/18 06:37:37;;;;;;;1999.90;999.90;;;;;;;21.38;83.77;95930.75;5110634;28;20195;-60
2021/06/18 06:40:06;;;;;;;1999.90;999.90;;;;;;;21.48;84.43;95927.53;5110814;28;20666;-59
2021/06/18 06:42:33;;;;;;;1999.90;999.90;;;;;;;21.30;84.45;95939.69;5110819;28;20201;-60
2021/06/18 06:45:00;;;;;;;1999.90;999.90;;;;;;;21.74;83.23;95929.47;5110781;28;20222;-58
2021/06/18 06:47:27;;;;;;;1999.90;999.90;;;;;;;21.67;82.23;95926.72;5110764;28;20191;-59
2021/06/18 06:49:56;;;;;;;1999.90;999.90;;;;;;;22.02;79.39;95923.88;5110694;28;20290;-60
2021/06/18 06:52:23;;;;;;;1999.90;999.90;;;;;;;21.39;81.62;95924.34;5110688;28;20199;-60
2021/06/18 06:54:51;;;;;;;1999.90;999.90;;;;;;;21.35;83.66;95926.19;5110577;28;20198;-60
2021/06/18 06:57:20;;;;;;;1999.90;999.90;;;;;;;21.50;82.45;95923.78;5110512;28;20817;-60
2021/06/18 06:59:47;;;;;;;1999.90;999.90;;;;;;;21.59;82.54;95924.31;5110539;28;20269;-60
2021/06/18 07:02:15;;;;;;;1999.90;999.90;;;;;;;21.88;82.92;95907.75;5110494;28;20191;-60
2021/06/18 07:04:42;;;;;;;1999.90;999.90;;;;;;;22.04;81.30;95910.28;5110326;28;20705;-60
2021/06/18 07:07:11;;;;;;;1999.90;999.90;;;;;;;22.21;80.60;95905.28;5110274;28;20202;-59
2021/06/18 07:09:39;;;;;;;1999.90;999.90;;;;;;;22.26;82.13;95902.31;5110581;28;20205;-60
2021/06/18 07:12:07;;;;;;;1999.90;999.90;;;;;;;22.56;81.44;95896.25;5110555;28;20245;-60
2021/06/18 07:14:37;;;;;;;1999.90;999.90;;;;;;;22.92;78.50;95897.44;5110316;28;20254;-59
2021/06/18 07:17:04;;;;;;;1999.90;999.90;;;;;;;23.25;77.35;95907.28;5110318;28;20676;-60
2021/06/18 07:19:32;;;;;;;1999.90;999.90;;;;;;;23.63;75.05;95893.63;5110475;28;20226;-60
2021/06/18 07:21:59;;;;;;;1999.90;999.90;;;;;;;23.43;76.73;95886.97;5110146;28;20188;-60
2021/06/18 07:24:29;;;;;;;1999.90;999.90;;;;;;;23.44;72.73;95893.81;5110291;28;20195;-60
2021/06/18 07:26:56;;;;;;;1999.90;999.90;;;;;;;23.33;73.34;95884.97;5110503;28;20229;-61
2021/06/18 07:29:25;;;;;;;1999.90;999.90;;;;;;;23.39;73.51;95886.19;5110225;28;20195;-60
2021/06/18 07:31:53;;;;;;;1999.90;999.90;;;;;;;23.68;73.46;95881.91;5110344;28;20697;-60
2021/06/18 07:34:20;;;;;;;1999.90;999.90;;;;;;;23.55;75.88;95873.47;5110087;28;20705;-60
2021/06/18 07:36:48;;;;;;;1999.90;999.90;;;;;;;23.38;73.20;95868.72;5110135;28;20689;-59
2021/06/18 07:39:15;;;;;;;1999.90;999.90;;;;;;;23.66;73.85;95876.94;5110373;28;20301;-60
2021/06/18 07:41:45;;;;;;;1999.90;999.90;;;;;;;23.66;69.99;95878.88;5110056;28;20187;-60
2021/06/18 07:44:12;;;;;;;1999.90;999.90;;;;;;;23.82;70.38;95871.38;5109982;28;20191;-60
2021/06/18 07:46:40;;;;;;;1999.90;999.90;;;;;;;24.00;71.10;95866.97;5111936;28;20201;-58
2021/06/18 07:49:07;;;;;;;1999.90;999.90;;;;;;;23.98;71.16;95869.97;5113948;27;20191;-60
2021/06/18 07:51:34;;;;;;;1999.90;999.90;;;;;;;24.08;69.12;95871.19;5114181;28;20569;-61
2021/06/18 07:54:01;;;;;;;1999.90;999.90;;;;;;;24.08;70.12;95870.41;5114173;27;20223;-60
2021/06/18 07:56:31;;;;;;;1999.90;999.90;;;;;;;24.42;70.00;95869.09;5113624;28;20657;-60
2021/06/18 07:59:01;;;;;;;1999.90;999.90;;;;;;;24.78;69.26;95873.44;5113932;28;20223;-61
2021/06/18 08:01:28;;;;;;;1999.90;999.90;;;;;;;24.70;67.26;95871.13;5114274;28;20206;-60
2021/06/18 08:03:56;;;;;;;1999.90;999.90;;;;;;;24.97;66.74;95863.63;5114044;28;20317;-60
2021/06/18 08:06:23;;;;;;;1999.90;999.90;;;;;;;25.04;65.68;95875.06;5113810;28;20230;-61
2021/06/18 08:08:50;;;;;;;1999.90;999.90;;;;;;;25.01;68.23;95875.03;5114074;28;20221;-60
2021/06/18 08:11:18;;;;;;;1999.90;999.90;;;;;;;25.30;66.16;95872.03;5113677;27;20837;-60
2021/06/18 08:13:45;;;;;;;1999.90;999.90;;;;;;;25.13;63.93;95859.50;5113365;27;20283;-62
2021/06/18 08:16:14;;;;;;;1999.90;999.90;;;;;;;25.33;62.72;95854.56;5113715;28;20233;-60
2021/06/18 08:18:41;;;;;;;1999.90;999.90;;;;;;;25.43;64.68;95848.50;5113660;28;20257;-60
2021/06/18 08:21:09;;;;;;;1999.90;999.90;;;;;;;25.74;60.47;95843.56;5113348;28;20206;-58
2021/06/18 08:23:37;;;;;;;1999.90;999.90;;;;;;;25.83;59.81;95838.63;5113626;27;20195;-60
2021/06/18 08:26:05;;;;;;;1999.90;999.90;;;;;;;26.04;61.93;95838.59;5113238;28;20678;-60
2021/06/18 08:28:32;;;;;;;1999.90;999.90;;;;;;;25.88;59.83;95835.56;5113148;28;20662;-60
2021/06/18 08:31:03;;;;;;;1999.90;999.90;;;;;;;26.11;60.63;95833.97;5113644;28;20219;-60
2021/06/18 08:33:33;;;;;;;1999.90;999.90;;;;;;;26.22;58.78;95838.56;5113581;28;20199;-59
2021/06/18 08:36:04;;;;;;;1999.90;999.90;;;;;;;26.14;59.55;95838.56;5113427;28;20243;-60
2021/06/18 08:38:34;;;;;;;1999.90;999.90;;;;;;;26.22;60.16;95835.88;5112975;28;20227;-60
2021/06/18 08:41:03;;;;;;;1999.90;999.90;;;;;;;26.33;62.37;95839.28;5113158;28;20194;-60
2021/06/18 08:43:32;;;;;;;1999.90;999.90;;;;;;;26.07;58.36;95838.56;5112957;28;20686;-59
2021/06/18 08:46:00;;;;;;;1999.90;999.90;;;;;;;25.82;57.46;95832.53;5112831;28;20195;-60
2021/06/18 08:48:29;;;;;;;1999.90;999.90;;;;;;;25.97;55.79;95825.25;5113420;28;20256;-60
2021/06/18 08:50:58;;;;;;;1999.90;999.90;;;;;;;25.83;56.84;95830.63;5113081;28;20559;-58
2021/06/18 08:53:26;;;;;;;1999.90;999.90;;;;;;;25.95;56.47;95825.63;5113144;28;20729;-59
2021/06/18 08:55:55;;;;;;;1999.90;999.90;;;;;;;26.01;54.91;95818.03;5112734;28;20187;-60
2021/06/18 08:58:22;;;;;;;1999.90;999.90;;;;;;;26.14;52.98;95816.47;5112246;28;20194;-61
2021/06/18 09:00:51;;;;;;;1999.90;999.90;;;;;;;26.00;55.78;95817.25;5112992;28;20198;-60
2021/06/18 09:03:36;;;;;;;1999.90;999.90;;;;;;;26.21;52.07;95811.09;5112402;28;20683;-61
2021/06/18 09:06:19;;;;;;;1999.90;999.90;;;;;;;26.57;53.71;95809.09;5113092;28;20194;-59
2021/06/18 09:08:47;;;;;;;1999.90;999.90;;;;;;;26.64;51.36;95811.75;5112323;27;20195;-60
2021/06/18 09:11:37;;;;;;;1999.90;999.90;;;;;;;26.75;52.48;95811.69;5112510;28;20256;-59
2021/06/18 09:14:15;;;;;;;1999.90;999.90;;;;;;;27.02;51.63;95804.66;5112408;28;20709;-60
2021/06/18 09:16:42;;;;;;;1999.90;999.90;;;;;;;27.09;51.17;95804.63;5112355;28;20203;-60
2021/06/18 09:19:25;;;;;;;1999.90;999.90;;;;;;;27.07;52.46;95806.94;5112378;28;20222;-59
2021/06/18 09:22:01;;;;;;;1999.90;999.90;;;;;;;27.12;52.50;95805.75;5112421;28;20670;-60
2021/06/18 09:24:29;;;;;;;1999.90;999.90;;;;;;;27.19;55.29;95808.38;5112817;28;20186;-58
2021/06/18 09:26:58;;;;;;;1999.90;999.90;;;;;;;26.91;52.97;95809.31;5112346;28;20195;-58
2021/06/18 09:29:26;;;;;;;1999.90;999.90;;;;;;;27.01;54.53;95800.47;5112276;28;20198;-60
2021/06/18 09:31:56;;;;;;;1999.90;999.90;;;;;;;27.07;57.15;95795.50;5111937;28;20199;-60
2021/06/18 09:34:38;;;;;;;1999.90;999.90;;;;;;;26.81;57.84;95791.44;5112220;28;20309;-60
2021/06/18 09:37:33;;;;;;;1999.90;999.90;;;;;;;27.04;58.05;95794.38;5112454;28;20242;-60
2021/06/18 09:40:08;;;;;;;1999.90;999.90;;;;;;;27.16;56.49;95795.81;5098147;28;20303;-61
2021/06/18 09:42:37;;;;;;;1999.90;999.90;;;;;;;27.18;56.34;95796.94;5111516;28;20195;-60
2021/06/18 09:45:09;;;;;;;1999.90;999.90;;;;;;;27.16;53.76;95793.91;5111801;28;20188;-61
2021/06/18 09:47:37;;;;;;;1999.90;999.90;;;;;;;26.97;53.25;95786.41;5112118;28;20209;-61
2021/06/18 09:50:06;;;;;;;1999.90;999.90;;;;;;;26.81;53.92;95788.75;5112129;28;20198;-60
2021/06/18 09:52:37;;;;;;;1999.90;999.90;;;;;;;26.75;54.17;95785.75;5112020;28;20205;-59
2021/06/18 09:55:06;;;;;;;1999.90;999.90;;;;;;;26.70;55.40;95791.50;5111554;28;20649;-60
2021/06/18 09:57:39;;;;;;;1999.90;999.90;;;;;;;26.64;54.45;95786.97;5111661;28;20574;-60
2021/06/18 10:00:08;;;;;;;1999.90;999.90;;;;;;;26.17;56.99;95785.63;5111585;28;20230;-60
2021/06/18 10:02:44;;;;;;;1999.90;999.90;;;;;;;26.24;56.86;95781.06;5111878;28;20195;-60
2021/06/18 10:05:13;;;;;;;1999.90;999.90;;;;;;;26.26;59.87;95781.44;5111367;28;20210;-61
2021/06/18 10:07:43;;;;;;;1999.90;999.90;;;;;;;26.23;58.14;95781.44;5111327;28;20197;-60
2021/06/18 10:10:12;;;;;;;1999.90;999.90;;;;;;;26.28;57.56;95779.16;5110533;28;20235;-61
2021/06/18 10:12:40;;;;;;;1999.90;999.90;;;;;;;26.38;59.98;95773.00;5111212;28;20198;-60
